Time;durP1;ratioP1;P1;durP2;ratioP2;P2;SDS_P1;SDS_P2;PMS_P1;PMS_P2;Temp;Humidity;BMP_temperature;BMP_pressure;BME280_temperature;BME280_humidity;BME280_pressure;Samples;Min_cycle;Max_cycle;Signal;HPM_P1;HPM_P2
2022/03/03 00:00:10;;;;;;;20.00;14.05;;;;;;;;;;5094851;28;20300;-66
2022/03/03 00:02:37;;;;;;;24.00;15.38;;;;;;;;;;5095722;28;20225;-66
2022/03/03 00:05:05;;;;;;;24.20;15.40;;;;;;;;;;5094695;28;20659;-67
2022/03/03 00:07:32;;;;;;;22.67;14.25;;;;;;;;;;5095550;28;20220;-67
2022/03/03 00:09:59;;;;;;;24.88;13.43;;;;;;;;;;5095157;28;20195;-67
2022/03/03 00:12:27;;;;;;;22.60;14.00;;;;;;;;;;5095555;28;20577;-67
2022/03/03 00:14:54;;;;;;;20.77;13.82;;;;;;;;;;5095057;28;20281;-67
2022/03/03 00:17:22;;;;;;;20.75;13.95;;;;;;;;;;5094538;28;20205;-67
2022/03/03 00:19:50;;;;;;;22.58;14.88;;;;;;;;;;5094374;28;20212;-67
2022/03/03 00:22:17;;;;;;;18.77;13.70;;;;;;;;;;5094742;28;20197;-66
2022/03/03 00:24:44;;;;;;;22.73;14.55;;;;;;;;;;5094361;28;20232;-67
2022/03/03 00:27:12;;;;;;;21.50;16.08;;;;;;;;;;5094531;28;20197;-68
2022/03/03 00:29:39;;;;;;;18.52;13.45;;;;;;;;;;5095004;28;20199;-67
2022/03/03 00:32:07;;;;;;;21.33;15.57;;;;;;;;;;5094587;28;20376;-68
2022/03/03 00:34:36;;;;;;;21.60;14.32;;;;;;;;;;5094613;28;20193;-68
2022/03/03 00:37:03;;;;;;;21.63;15.50;;;;;;;;;;5094785;28;20228;-67
2022/03/03 00:39:30;;;;;;;19.20;14.30;;;;;;;;;;5094520;28;20194;-68
2022/03/03 00:41:57;;;;;;;20.00;15.02;;;;;;;;;;5094404;28;20229;-68
2022/03/03 00:44:24;;;;;;;20.98;14.85;;;;;;;;;;5094232;28;20189;-68
2022/03/03 00:46:52;;;;;;;22.30;15.00;;;;;;;;;;5094333;28;20281;-67
2022/03/03 00:49:19;;;;;;;18.42;13.23;;;;;;;;;;5094238;28;20217;-68
2022/03/03 00:51:47;;;;;;;19.42;14.57;;;;;;;;;;5094256;28;20197;-67
2022/03/03 00:54:14;;;;;;;21.52;14.85;;;;;;;;;;5094427;28;20202;-67
2022/03/03 00:56:42;;;;;;;20.10;13.35;;;;;;;;;;5094200;28;20190;-66
2022/03/03 00:59:10;;;;;;;21.05;13.57;;;;;;;;;;5094408;28;20197;-68
2022/03/03 01:01:37;;;;;;;19.40;13.68;;;;;;;;;;5093720;28;20250;-66
2022/03/03 01:04:05;;;;;;;21.90;15.57;;;;;;;;;;5094845;28;20201;-68
2022/03/03 01:06:32;;;;;;;20.88;12.95;;;;;;;;;;5094681;28;20280;-67
2022/03/03 01:09:00;;;;;;;19.80;13.65;;;;;;;;;;5093625;28;20220;-67
2022/03/03 01:11:27;;;;;;;19.75;13.40;;;;;;;;;;5094116;28;20760;-67
2022/03/03 01:13:55;;;;;;;20.88;14.27;;;;;;;;;;5093929;28;20198;-67
2022/03/03 01:16:22;;;;;;;21.10;14.23;;;;;;;;;;5093900;28;20200;-68
2022/03/03 01:18:49;;;;;;;27.75;15.48;;;;;;;;;;5093910;28;20225;-67
2022/03/03 01:21:16;;;;;;;18.85;14.15;;;;;;;;;;5093858;28;20190;-68
2022/03/03 01:23:44;;;;;;;21.88;15.02;;;;;;;;;;5093940;28;20200;-66
2022/03/03 01:26:12;;;;;;;25.27;14.40;;;;;;;;;;5093521;28;20198;-66
2022/03/03 01:28:39;;;;;;;23.10;14.88;;;;;;;;;;5093670;28;20312;-66
2022/03/03 01:31:06;;;;;;;22.35;14.38;;;;;;;;;;5093852;28;20378;-66
2022/03/03 01:33:34;;;;;;;18.05;13.38;;;;;;;;;;5093440;28;20200;-67
2022/03/03 01:36:01;;;;;;;22.75;13.70;;;;;;;;;;5093679;28;20285;-66
2022/03/03 01:38:28;;;;;;;19.70;14.50;;;;;;;;;;5093323;28;20198;-67
2022/03/03 01:40:55;;;;;;;22.90;14.23;;;;;;;;;;5093735;28;20285;-67
2022/03/03 01:43:24;;;;;;;19.40;14.30;;;;;;;;;;5093338;28;20232;-67
2022/03/03 01:45:51;;;;;;;20.92;13.63;;;;;;;;;;5093213;28;20280;-67
2022/03/03 01:48:18;;;;;;;18.95;12.75;;;;;;;;;;5093183;28;20250;-67
2022/03/03 01:50:46;;;;;;;19.38;14.70;;;;;;;;;;5093465;28;20537;-66
2022/03/03 01:53:13;;;;;;;24.05;14.38;;;;;;;;;;5093240;28;20201;-66
2022/03/03 01:55:41;;;;;;;25.55;14.38;;;;;;;;;;5093089;28;20250;-67
2022/03/03 01:58:08;;;;;;;27.45;14.38;;;;;;;;;;5094140;28;20197;-67
2022/03/03 02:00:37;;;;;;;18.83;12.80;;;;;;;;;;5093072;28;20225;-66
2022/03/03 02:03:04;;;;;;;27.80;14.55;;;;;;;;;;5093515;28;20193;-66
2022/03/03 02:05:31;;;;;;;23.17;14.32;;;;;;;;;;5093032;28;20200;-66
2022/03/03 02:07:59;;;;;;;20.05;13.00;;;;;;;;;;5093305;28;20291;-67
2022/03/03 02:10:26;;;;;;;14.98;12.20;;;;;;;;;;5093091;28;20293;-66
2022/03/03 02:12:53;;;;;;;21.35;13.93;;;;;;;;;;5093435;28;20192;-66
2022/03/03 02:15:21;;;;;;;21.05;14.70;;;;;;;;;;5092949;28;20194;-66
2022/03/03 02:17:50;;;;;;;25.65;14.00;;;;;;;;;;5093564;28;20280;-67
2022/03/03 02:20:22;;;;;;;20.15;14.13;;;;;;;;;;5093791;28;20312;-67
2022/03/03 02:22:49;;;;;;;22.25;13.65;;;;;;;;;;5093491;28;20250;-66
2022/03/03 02:25:17;;;;;;;23.77;13.82;;;;;;;;;;5093231;28;20201;-66
2022/03/03 02:27:44;;;;;;;20.42;13.15;;;;;;;;;;5093571;28;20289;-66
2022/03/03 02:30:12;;;;;;;19.90;14.35;;;;;;;;;;5093583;28;20198;-66
2022/03/03 02:32:39;;;;;;;19.60;12.75;;;;;;;;;;5093362;28;20280;-67
2022/03/03 02:35:06;;;;;;;18.42;13.15;;;;;;;;;;5093103;28;20193;-67
2022/03/03 02:37:36;;;;;;;18.98;13.73;;;;;;;;;;5093190;28;20708;-67
2022/03/03 02:40:04;;;;;;;22.13;13.85;;;;;;;;;;5092586;28;20288;-67
2022/03/03 02:42:31;;;;;;;20.35;14.35;;;;;;;;;;5093258;28;20237;-67
2022/03/03 02:44:59;;;;;;;20.95;13.35;;;;;;;;;;5096247;28;20750;-66
2022/03/03 02:47:26;;;;;;;21.85;14.18;;;;;;;;;;5096621;28;20194;-66
2022/03/03 02:49:53;;;;;;;19.65;14.18;;;;;;;;;;5096498;28;20222;-66
2022/03/03 02:52:20;;;;;;;20.23;14.45;;;;;;;;;;5096492;28;20203;-66
2022/03/03 02:54:49;;;;;;;23.27;13.63;;;;;;;;;;5096495;28;20292;-65
2022/03/03 03:00:01;;;;;;;18.85;13.35;;;;;;;;;;5096514;28;20181;-66
2022/03/03 03:02:29;;;;;;;20.35;13.57;;;;;;;;;;5096309;28;20294;-67
2022/03/03 03:04:56;;;;;;;20.75;14.07;;;;;;;;;;5095986;28;20734;-67
2022/03/03 03:07:23;;;;;;;21.40;12.98;;;;;;;;;;5095829;28;20224;-66
2022/03/03 03:09:52;;;;;;;21.85;14.90;;;;;;;;;;5095948;28;20228;-67
2022/03/03 03:12:19;;;;;;;23.30;14.18;;;;;;;;;;5096347;28;20221;-67
2022/03/03 03:14:46;;;;;;;20.00;15.18;;;;;;;;;;5096304;28;20284;-66
2022/03/03 03:17:13;;;;;;;21.08;15.30;;;;;;;;;;5096027;28;20280;-66
2022/03/03 03:19:40;;;;;;;21.02;14.65;;;;;;;;;;5096433;28;20198;-67
2022/03/03 03:22:08;;;;;;;22.95;14.52;;;;;;;;;;5095857;28;20197;-66
2022/03/03 03:24:35;;;;;;;24.10;14.73;;;;;;;;;;5095933;28;20225;-65
2022/03/03 03:27:04;;;;;;;19.13;13.95;;;;;;;;;;5095753;28;20241;-67
2022/03/03 03:29:31;;;;;;;19.42;14.27;;;;;;;;;;5095778;28;20568;-66
2022/03/03 03:31:58;;;;;;;19.05;13.55;;;;;;;;;;5095734;28;20208;-67
2022/03/03 03:34:26;;;;;;;25.25;15.27;;;;;;;;;;5095985;28;20225;-67
2022/03/03 03:36:53;;;;;;;22.45;15.20;;;;;;;;;;5095567;28;20193;-67
2022/03/03 03:39:20;;;;;;;21.50;14.20;;;;;;;;;;5095986;28;20202;-67
2022/03/03 03:41:47;;;;;;;20.25;14.10;;;;;;;;;;5095687;28;20539;-67
2022/03/03 03:44:16;;;;;;;25.38;15.25;;;;;;;;;;5095542;28;20220;-67
2022/03/03 03:46:43;;;;;;;19.38;14.05;;;;;;;;;;5095425;28;20221;-66
2022/03/03 03:49:10;;;;;;;21.90;13.70;;;;;;;;;;5095382;28;20257;-66
2022/03/03 03:51:38;;;;;;;21.15;15.93;;;;;;;;;;5095640;28;20199;-67
2022/03/03 03:54:05;;;;;;;26.90;15.70;;;;;;;;;;5094709;28;20288;-67
2022/03/03 03:56:33;;;;;;;24.65;15.75;;;;;;;;;;5095804;28;20194;-67
2022/03/03 03:59:00;;;;;;;21.45;15.45;;;;;;;;;;5095257;28;20229;-66
2022/03/03 04:01:31;;;;;;;23.23;14.35;;;;;;;;;;5095141;28;20201;-67
2022/03/03 04:03:58;;;;;;;23.15;14.55;;;;;;;;;;5094870;28;20182;-69
2022/03/03 04:06:25;;;;;;;23.08;15.45;;;;;;;;;;5094736;28;20228;-68
2022/03/03 04:08:52;;;;;;;24.05;15.85;;;;;;;;;;5095056;28;20300;-66
2022/03/03 04:11:19;;;;;;;27.08;15.27;;;;;;;;;;5095241;28;20225;-67
2022/03/03 04:13:47;;;;;;;22.20;15.10;;;;;;;;;;5094951;28;20199;-67
2022/03/03 04:16:15;;;;;;;26.33;16.00;;;;;;;;;;5094928;28;20193;-67
2022/03/03 04:18:43;;;;;;;23.77;15.00;;;;;;;;;;5094912;28;20676;-67
2022/03/03 04:21:11;;;;;;;22.25;15.35;;;;;;;;;;5094867;28;20198;-67
2022/03/03 04:23:38;;;;;;;21.42;14.43;;;;;;;;;;5094798;28;20322;-66
2022/03/03 04:26:05;;;;;;;24.02;16.30;;;;;;;;;;5094996;28;20289;-66
2022/03/03 04:28:33;;;;;;;25.08;15.40;;;;;;;;;;5094504;28;20228;-66
2022/03/03 04:31:00;;;;;;;24.13;15.52;;;;;;;;;;5094359;28;20205;-66
2022/03/03 04:33:27;;;;;;;22.23;14.57;;;;;;;;;;5094495;28;20200;-66
2022/03/03 04:35:56;;;;;;;23.00;14.05;;;;;;;;;;5095075;28;20221;-67
2022/03/03 04:38:23;;;;;;;18.10;14.00;;;;;;;;;;5094424;28;20194;-66
2022/03/03 04:40:50;;;;;;;22.08;14.75;;;;;;;;;;5094729;28;20225;-67
2022/03/03 04:43:17;;;;;;;21.58;14.65;;;;;;;;;;5094396;28;20193;-67
2022/03/03 04:45:45;;;;;;;19.63;14.68;;;;;;;;;;5095025;28;20220;-67
2022/03/03 04:48:12;;;;;;;20.58;15.23;;;;;;;;;;5094421;28;20189;-67
2022/03/03 04:50:40;;;;;;;22.45;14.10;;;;;;;;;;5093914;28;20716;-67
2022/03/03 04:53:08;;;;;;;22.02;14.30;;;;;;;;;;5093872;28;20229;-67
2022/03/03 04:55:35;;;;;;;24.42;14.25;;;;;;;;;;5093858;28;20197;-66
2022/03/03 04:58:03;;;;;;;22.27;14.07;;;;;;;;;;5094272;28;20284;-67
2022/03/03 05:00:30;;;;;;;22.85;15.30;;;;;;;;;;5094112;28;20197;-66
2022/03/03 05:02:57;;;;;;;22.30;15.40;;;;;;;;;;5093680;28;20309;-66
2022/03/03 05:05:25;;;;;;;24.60;14.07;;;;;;;;;;5093403;28;20190;-66
2022/03/03 05:07:52;;;;;;;20.77;14.30;;;;;;;;;;5093931;28;20205;-67
2022/03/03 05:10:20;;;;;;;20.13;13.50;;;;;;;;;;5093469;28;20405;-65
2022/03/03 05:12:48;;;;;;;20.83;13.50;;;;;;;;;;5094211;28;20268;-69
2022/03/03 05:15:15;;;;;;;24.40;14.48;;;;;;;;;;5093649;28;20288;-69
2022/03/03 05:17:43;;;;;;;18.88;13.70;;;;;;;;;;5093479;28;20196;-69
2022/03/03 05:20:11;;;;;;;20.02;13.32;;;;;;;;;;5094690;28;20204;-68
2022/03/03 05:22:38;;;;;;;20.02;14.07;;;;;;;;;;5092619;28;20194;-68
2022/03/03 05:25:05;;;;;;;22.05;13.48;;;;;;;;;;5092917;28;20737;-69
2022/03/03 05:27:34;;;;;;;17.30;13.15;;;;;;;;;;5093022;28;20277;-69
2022/03/03 05:30:01;;;;;;;19.55;13.27;;;;;;;;;;5093389;28;20213;-68
2022/03/03 05:32:29;;;;;;;22.77;14.50;;;;;;;;;;5092994;28;20225;-69
2022/03/03 05:34:56;;;;;;;20.02;14.52;;;;;;;;;;5093675;28;20202;-69
2022/03/03 05:37:24;;;;;;;19.50;13.20;;;;;;;;;;5093338;28;20293;-68
2022/03/03 05:39:52;;;;;;;23.65;15.52;;;;;;;;;;5093397;28;20208;-69
2022/03/03 05:42:20;;;;;;;21.35;13.98;;;;;;;;;;5093176;28;20198;-68
2022/03/03 05:44:48;;;;;;;18.65;14.20;;;;;;;;;;5093546;28;20200;-69
2022/03/03 05:47:16;;;;;;;23.90;14.52;;;;;;;;;;5093632;28;20190;-68
2022/03/03 05:49:44;;;;;;;30.15;19.63;;;;;;;;;;5093426;28;20214;-69
2022/03/03 05:52:12;;;;;;;25.52;16.60;;;;;;;;;;5093281;28;20276;-69
2022/03/03 05:54:39;;;;;;;29.70;16.67;;;;;;;;;;5093093;28;20769;-69
2022/03/03 05:57:08;;;;;;;21.98;16.40;;;;;;;;;;5093192;28;20284;-70
2022/03/03 05:59:36;;;;;;;26.02;15.43;;;;;;;;;;5093148;28;20692;-69
2022/03/03 06:02:05;;;;;;;22.75;14.85;;;;;;;;;;5092838;28;20193;-68
2022/03/03 06:04:37;;;;;;;24.17;14.55;;;;;;;;;;5093220;28;20280;-69
2022/03/03 06:07:07;;;;;;;24.63;16.17;;;;;;;;;;5093405;28;20185;-69
2022/03/03 06:09:35;;;;;;;20.08;13.98;;;;;;;;;;5093126;28;20245;-69
2022/03/03 06:12:15;;;;;;;25.13;16.73;;;;;;;;;;5093460;28;20221;-68
2022/03/03 06:14:46;;;;;;;23.17;16.17;;;;;;;;;;5093043;28;20228;-68
2022/03/03 06:17:15;;;;;;;21.55;15.98;;;;;;;;;;5094865;28;20272;-69
2022/03/03 06:19:42;;;;;;;30.77;16.55;;;;;;;;;;5097102;28;20200;-70
2022/03/03 06:22:10;;;;;;;24.95;15.35;;;;;;;;;;5096792;28;20193;-70
2022/03/03 06:24:38;;;;;;;19.65;14.82;;;;;;;;;;5096952;28;20243;-70
2022/03/03 06:27:05;;;;;;;28.15;15.60;;;;;;;;;;5097008;28;20197;-70
2022/03/03 06:29:33;;;;;;;26.25;15.63;;;;;;;;;;5096956;28;20221;-79
2022/03/03 06:32:00;;;;;;;40.58;22.13;;;;;;;;;;5096757;28;20198;-68
2022/03/03 06:34:29;;;;;;;54.72;27.98;;;;;;;;;;5096675;28;20220;-68
2022/03/03 06:36:56;;;;;;;46.15;25.42;;;;;;;;;;5096714;28;20189;-68
2022/03/03 06:39:23;;;;;;;41.80;26.27;;;;;;;;;;5097126;28;20640;-68
2022/03/03 06:41:51;;;;;;;53.67;29.70;;;;;;;;;;5096169;28;20225;-68
2022/03/03 06:44:19;;;;;;;44.65;25.35;;;;;;;;;;5096079;28;20197;-68
2022/03/03 06:46:46;;;;;;;43.63;26.05;;;;;;;;;;5096585;28;20204;-68
2022/03/03 06:49:13;;;;;;;40.25;24.05;;;;;;;;;;5096875;28;20193;-67
2022/03/03 06:51:43;;;;;;;29.27;20.33;;;;;;;;;;5096545;28;20240;-67
2022/03/03 06:54:12;;;;;;;37.25;17.05;;;;;;;;;;5096528;28;20197;-67
2022/03/03 06:56:45;;;;;;;33.67;18.35;;;;;;;;;;5096503;28;20206;-68
2022/03/03 06:59:12;;;;;;;26.40;17.80;;;;;;;;;;5096020;28;20185;-68
2022/03/03 07:01:42;;;;;;;24.15;15.55;;;;;;;;;;5096291;28;20198;-67
2022/03/03 07:04:09;;;;;;;26.35;16.73;;;;;;;;;;5096180;28;20229;-68
2022/03/03 07:06:37;;;;;;;24.60;18.25;;;;;;;;;;5096374;28;20281;-68
2022/03/03 07:09:05;;;;;;;25.42;16.20;;;;;;;;;;5095908;28;20194;-67
2022/03/03 07:11:33;;;;;;;23.45;16.10;;;;;;;;;;5096136;28;20233;-68
2022/03/03 07:14:00;;;;;;;30.58;17.73;;;;;;;;;;5095692;28;20236;-68
2022/03/03 07:16:32;;;;;;;32.33;20.65;;;;;;;;;;5095717;28;20281;-68
2022/03/03 07:19:01;;;;;;;28.75;19.20;;;;;;;;;;5095722;28;20205;-68
2022/03/03 07:21:33;;;;;;;30.85;19.42;;;;;;;;;;5096024;28;20289;-67
2022/03/03 07:24:03;;;;;;;21.75;17.60;;;;;;;;;;5096136;28;20236;-68
2022/03/03 07:26:32;;;;;;;25.08;16.90;;;;;;;;;;5095907;28;20198;-68
2022/03/03 07:29:01;;;;;;;25.33;17.27;;;;;;;;;;5095530;28;20289;-69
2022/03/03 07:31:31;;;;;;;24.50;17.60;;;;;;;;;;5095695;28;20218;-68
2022/03/03 07:34:01;;;;;;;25.55;17.80;;;;;;;;;;5096121;28;20193;-67
2022/03/03 07:36:29;;;;;;;25.88;17.55;;;;;;;;;;5095727;28;20616;-67
2022/03/03 07:38:58;;;;;;;27.60;18.00;;;;;;;;;;5095612;28;20297;-67
2022/03/03 07:41:26;;;;;;;28.05;17.60;;;;;;;;;;5095940;28;20556;-67
2022/03/03 07:43:55;;;;;;;29.67;18.75;;;;;;;;;;5095534;28;20205;-68
2022/03/03 07:46:22;;;;;;;31.75;17.75;;;;;;;;;;5095493;28;20229;-68
2022/03/03 07:48:51;;;;;;;25.55;18.35;;;;;;;;;;5095441;28;20233;-67
2022/03/03 07:51:18;;;;;;;28.35;16.73;;;;;;;;;;5095260;28;20236;-68
2022/03/03 07:53:45;;;;;;;37.22;21.50;;;;;;;;;;5095359;28;20252;-67
2022/03/03 07:56:16;;;;;;;26.25;17.92;;;;;;;;;;5095197;28;20301;-68
2022/03/03 07:58:45;;;;;;;26.05;17.77;;;;;;;;;;5095363;28;20284;-68
2022/03/03 08:01:17;;;;;;;30.63;18.65;;;;;;;;;;5095120;28;20228;-67
2022/03/03 08:03:45;;;;;;;31.02;19.60;;;;;;;;;;5094859;28;20198;-68
2022/03/03 08:06:13;;;;;;;28.15;17.40;;;;;;;;;;5095127;28;20202;-68
2022/03/03 08:08:41;;;;;;;28.00;17.20;;;;;;;;;;5095125;28;20194;-67
2022/03/03 08:11:09;;;;;;;28.27;17.33;;;;;;;;;;5095080;28;20268;-67
2022/03/03 08:13:37;;;;;;;25.55;17.60;;;;;;;;;;5095130;28;20194;-68
2022/03/03 08:16:05;;;;;;;27.75;17.83;;;;;;;;;;5094835;28;20232;-68
2022/03/03 08:18:35;;;;;;;40.30;19.38;;;;;;;;;;5094832;28;20281;-68
2022/03/03 08:21:03;;;;;;;26.73;16.95;;;;;;;;;;5094910;28;20182;-67
2022/03/03 08:23:30;;;;;;;23.70;15.13;;;;;;;;;;5094812;28;20195;-67
2022/03/03 08:25:58;;;;;;;24.70;15.75;;;;;;;;;;5094522;28;20285;-68
2022/03/03 08:28:25;;;;;;;32.60;16.92;;;;;;;;;;5094866;28;20284;-68
2022/03/03 08:30:53;;;;;;;21.67;16.00;;;;;;;;;;5094452;28;20243;-68
2022/03/03 08:33:21;;;;;;;35.22;18.95;;;;;;;;;;5094518;28;20204;-69
2022/03/03 08:35:54;;;;;;;18.73;15.45;;;;;;;;;;5094975;28;20203;-68
2022/03/03 08:38:26;;;;;;;28.23;16.80;;;;;;;;;;5094942;28;20602;-70
2022/03/03 08:40:53;;;;;;;34.40;19.35;;;;;;;;;;5093456;28;20242;-68
2022/03/03 08:43:21;;;;;;;24.38;15.68;;;;;;;;;;5094135;28;20207;-68
2022/03/03 08:45:49;;;;;;;25.20;17.05;;;;;;;;;;5094203;28;20297;-68
2022/03/03 08:48:17;;;;;;;21.83;15.95;;;;;;;;;;5094339;28;20198;-67
2022/03/03 08:50:45;;;;;;;23.35;15.23;;;;;;;;;;5094235;28;20226;-68
2022/03/03 08:53:13;;;;;;;20.15;15.23;;;;;;;;;;5094178;28;20251;-67
2022/03/03 08:55:41;;;;;;;18.90;14.25;;;;;;;;;;5094143;28;20618;-67
2022/03/03 08:58:10;;;;;;;19.45;15.38;;;;;;;;;;5094203;28;20197;-69
2022/03/03 09:00:37;;;;;;;21.17;13.95;;;;;;;;;;5093920;28;20256;-68
2022/03/03 09:03:05;;;;;;;25.50;15.07;;;;;;;;;;5094145;28;20701;-68
2022/03/03 09:05:32;;;;;;;23.77;13.65;;;;;;;;;;5093730;28;20284;-68
2022/03/03 09:08:00;;;;;;;21.50;15.27;;;;;;;;;;5094449;28;20194;-68
2022/03/03 09:10:28;;;;;;;22.58;15.55;;;;;;;;;;5093575;28;20309;-67
2022/03/03 09:12:56;;;;;;;20.70;15.57;;;;;;;;;;5093701;28;20179;-68
2022/03/03 09:15:23;;;;;;;24.48;14.55;;;;;;;;;;5093787;28;20652;-67
2022/03/03 09:17:50;;;;;;;19.67;13.63;;;;;;;;;;5093923;28;20292;-68
2022/03/03 09:20:17;;;;;;;25.83;14.70;;;;;;;;;;5093706;28;20248;-67
2022/03/03 09:22:46;;;;;;;20.80;14.00;;;;;;;;;;5094013;28;20292;-67
2022/03/03 09:25:14;;;;;;;22.90;14.05;;;;;;;;;;5093500;28;20208;-68
2022/03/03 09:27:43;;;;;;;20.40;13.52;;;;;;;;;;5093688;28;20243;-68
2022/03/03 09:30:11;;;;;;;22.83;13.90;;;;;;;;;;5093500;28;20535;-68
2022/03/03 09:32:39;;;;;;;24.80;13.40;;;;;;;;;;5093554;28;20234;-68
2022/03/03 09:35:07;;;;;;;19.30;14.30;;;;;;;;;;5093524;28;20559;-68
2022/03/03 09:37:34;;;;;;;18.42;13.40;;;;;;;;;;5093505;28;20197;-67
2022/03/03 09:40:01;;;;;;;18.95;15.45;;;;;;;;;;5093405;28;20193;-68
2022/03/03 09:42:33;;;;;;;16.92;14.60;;;;;;;;;;5093377;28;20195;-68
2022/03/03 09:45:02;;;;;;;23.63;14.68;;;;;;;;;;5093275;28;20212;-67
2022/03/03 09:47:29;;;;;;;19.30;14.85;;;;;;;;;;5093075;28;20231;-67
2022/03/03 09:49:57;;;;;;;17.48;13.45;;;;;;;;;;5092637;28;20271;-67
2022/03/03 09:52:25;;;;;;;20.10;14.30;;;;;;;;;;5094934;28;20317;-68
2022/03/03 09:54:54;;;;;;;17.42;15.50;;;;;;;;;;5097073;28;20289;-68
2022/03/03 09:57:21;;;;;;;23.80;15.68;;;;;;;;;;5097334;28;20226;-67
2022/03/03 09:59:49;;;;;;;26.27;15.20;;;;;;;;;;5097074;28;20203;-68
2022/03/03 10:02:18;;;;;;;19.98;13.88;;;;;;;;;;5097311;28;20353;-68
2022/03/03 10:04:45;;;;;;;19.73;13.32;;;;;;;;;;5096960;28;20269;-67
2022/03/03 10:07:13;;;;;;;14.25;12.25;;;;;;;;;;5097096;28;20681;-68
2022/03/03 10:12:22;;;;;;;18.85;13.73;;;;;;;;;;5096862;28;20396;-68
2022/03/03 10:14:50;;;;;;;19.83;12.82;;;;;;;;;;5097312;28;20553;-68
2022/03/03 10:17:19;;;;;;;17.85;13.32;;;;;;;;;;5096622;28;20231;-69
2022/03/03 10:19:53;;;;;;;19.30;14.77;;;;;;;;;;5097092;28;20218;-69
2022/03/03 10:22:25;;;;;;;21.77;16.05;;;;;;;;;;5096636;28;20285;-69
2022/03/03 10:24:54;;;;;;;18.35;13.50;;;;;;;;;;5096617;28;20183;-68
2022/03/03 10:27:21;;;;;;;19.30;12.90;;;;;;;;;;5096906;28;20198;-68
2022/03/03 10:29:49;;;;;;;20.15;14.77;;;;;;;;;;5096832;28;20282;-68
2022/03/03 10:32:25;;;;;;;24.33;14.40;;;;;;;;;;5096431;28;20696;-68
2022/03/03 10:34:54;;;;;;;20.02;14.55;;;;;;;;;;5096540;28;20198;-67
2022/03/03 10:37:23;;;;;;;17.02;14.25;;;;;;;;;;5096858;28;20202;-69
2022/03/03 10:39:51;;;;;;;17.08;13.45;;;;;;;;;;5096560;28;20206;-68
2022/03/03 10:42:19;;;;;;;18.05;13.68;;;;;;;;;;5096122;28;20200;-68
2022/03/03 10:44:46;;;;;;;14.80;12.52;;;;;;;;;;5097267;28;20537;-69
2022/03/03 10:47:14;;;;;;;15.98;13.27;;;;;;;;;;5096107;28;20294;-68
2022/03/03 10:49:44;;;;;;;16.60;13.15;;;;;;;;;;5096754;28;20191;-69
2022/03/03 10:52:12;;;;;;;21.80;14.35;;;;;;;;;;5096314;28;20351;-68
2022/03/03 10:54:50;;;;;;;22.65;13.43;;;;;;;;;;5096469;28;20304;-67
2022/03/03 10:57:30;;;;;;;14.07;12.45;;;;;;;;;;5096832;28;20242;-69
2022/03/03 10:59:59;;;;;;;15.38;12.63;;;;;;;;;;5095966;28;20188;-68
2022/03/03 11:02:28;;;;;;;23.05;13.15;;;;;;;;;;5096214;28;20220;-68
2022/03/03 11:04:56;;;;;;;18.52;13.95;;;;;;;;;;5095062;28;20246;-69
2022/03/03 11:07:24;;;;;;;14.82;12.75;;;;;;;;;;5096040;28;20226;-68
2022/03/03 11:09:51;;;;;;;13.45;12.05;;;;;;;;;;5095929;28;20200;-68
2022/03/03 11:12:19;;;;;;;15.23;12.18;;;;;;;;;;5096272;28;20320;-68
2022/03/03 11:14:47;;;;;;;16.73;12.55;;;;;;;;;;5096082;28;20197;-68
2022/03/03 11:17:14;;;;;;;21.92;13.02;;;;;;;;;;5095675;28;20662;-68
2022/03/03 11:19:42;;;;;;;19.02;11.93;;;;;;;;;;5096020;28;20364;-68
2022/03/03 11:22:11;;;;;;;17.83;13.48;;;;;;;;;;5095838;28;20203;-68
2022/03/03 11:24:39;;;;;;;15.98;11.68;;;;;;;;;;5095594;28;20643;-67
2022/03/03 11:27:07;;;;;;;17.05;11.60;;;;;;;;;;5095746;28;20534;-68
2022/03/03 11:29:38;;;;;;;19.92;12.60;;;;;;;;;;5095851;28;20199;-68
2022/03/03 11:32:06;;;;;;;15.20;12.10;;;;;;;;;;5095623;28;20212;-69
2022/03/03 11:34:44;;;;;;;16.63;12.18;;;;;;;;;;5095578;28;20232;-68
2022/03/03 11:37:21;;;;;;;13.90;12.35;;;;;;;;;;5095543;28;20681;-68
2022/03/03 11:39:49;;;;;;;13.48;11.70;;;;;;;;;;5095253;28;20203;-67
2022/03/03 11:42:18;;;;;;;13.05;11.30;;;;;;;;;;5095056;28;20237;-67
2022/03/03 11:44:45;;;;;;;14.20;11.90;;;;;;;;;;5095450;28;20647;-68
2022/03/03 11:47:19;;;;;;;14.95;10.80;;;;;;;;;;5095074;28;20217;-68
2022/03/03 11:49:59;;;;;;;16.75;12.27;;;;;;;;;;5095560;28;20542;-68
2022/03/03 11:52:28;;;;;;;16.10;11.73;;;;;;;;;;5094839;28;20315;-68
2022/03/03 11:54:56;;;;;;;13.15;10.40;;;;;;;;;;5095319;28;20196;-67
2022/03/03 11:57:27;;;;;;;10.85;9.75;;;;;;;;;;5095134;28;20207;-69
2022/03/03 11:59:55;;;;;;;13.15;10.27;;;;;;;;;;5095287;28;20177;-69
2022/03/03 12:02:28;;;;;;;11.60;9.95;;;;;;;;;;5095198;28;20238;-69
2022/03/03 12:05:11;;;;;;;10.80;9.20;;;;;;;;;;5095805;28;20182;-68
2022/03/03 12:07:40;;;;;;;11.27;8.25;;;;;;;;;;5094589;28;20288;-68
2022/03/03 12:10:14;;;;;;;12.63;8.55;;;;;;;;;;5095102;28;20282;-68
2022/03/03 12:12:41;;;;;;;15.88;11.55;;;;;;;;;;5094569;28;20689;-67
2022/03/03 12:15:09;;;;;;;11.75;9.25;;;;;;;;;;5094393;28;20298;-69
2022/03/03 12:17:38;;;;;;;10.20;8.57;;;;;;;;;;5094704;28;20290;-68
2022/03/03 12:20:23;;;;;;;12.10;10.15;;;;;;;;;;5095241;28;20559;-69
2022/03/03 12:23:02;;;;;;;11.55;9.77;;;;;;;;;;5095373;28;20550;-68
2022/03/03 12:25:48;;;;;;;11.43;9.18;;;;;;;;;;5095133;28;20255;-68
2022/03/03 12:28:16;;;;;;;10.93;9.07;;;;;;;;;;5094617;28;20227;-68
2022/03/03 12:30:44;;;;;;;11.15;10.05;;;;;;;;;;5094575;28;20612;-68
2022/03/03 12:33:21;;;;;;;10.75;8.95;;;;;;;;;;5094535;28;20224;-68
2022/03/03 12:35:49;;;;;;;13.52;8.38;;;;;;;;;;5094848;28;20542;-68
2022/03/03 12:38:18;;;;;;;8.93;8.00;;;;;;;;;;5093905;28;20232;-68
2022/03/03 12:40:45;;;;;;;12.88;8.98;;;;;;;;;;5095378;28;20303;-69
2022/03/03 12:43:15;;;;;;;12.63;9.68;;;;;;;;;;5094808;28;20201;-69
2022/03/03 12:45:42;;;;;;;12.15;10.07;;;;;;;;;;5094359;28;20638;-68
2022/03/03 12:48:09;;;;;;;11.23;10.05;;;;;;;;;;5094655;28;20246;-69
2022/03/03 12:50:37;;;;;;;12.63;10.68;;;;;;;;;;5094824;28;20245;-69
2022/03/03 12:53:06;;;;;;;13.35;10.93;;;;;;;;;;5093702;28;20229;-68
2022/03/03 12:55:36;;;;;;;11.48;8.88;;;;;;;;;;5093881;28;20283;-69
2022/03/03 12:58:05;;;;;;;10.70;9.40;;;;;;;;;;5094266;28;20193;-68
2022/03/03 13:00:34;;;;;;;14.15;11.35;;;;;;;;;;5093689;28;20228;-73
2022/03/03 13:03:02;;;;;;;13.98;10.73;;;;;;;;;;5093708;28;20200;-68
2022/03/03 13:05:40;;;;;;;11.93;10.60;;;;;;;;;;5093652;28;20204;-69
2022/03/03 13:08:08;;;;;;;16.50;10.50;;;;;;;;;;5094391;28;20275;-68
2022/03/03 13:10:38;;;;;;;14.85;10.63;;;;;;;;;;5093553;28;20221;-69
2022/03/03 13:13:06;;;;;;;16.67;11.05;;;;;;;;;;5093644;28;20708;-68
2022/03/03 13:15:35;;;;;;;15.52;11.82;;;;;;;;;;5093703;28;20225;-67
2022/03/03 13:18:04;;;;;;;14.10;10.65;;;;;;;;;;5093524;28;20197;-67
2022/03/03 13:20:32;;;;;;;14.18;10.52;;;;;;;;;;5093336;28;20201;-68
2022/03/03 13:23:00;;;;;;;14.00;9.70;;;;;;;;;;5092878;28;20296;-68
2022/03/03 13:25:27;;;;;;;13.23;10.20;;;;;;;;;;5093000;28;20491;-68
2022/03/03 13:27:56;;;;;;;18.00;13.75;;;;;;;;;;5092809;28;20631;-68
2022/03/03 13:30:23;;;;;;;14.50;12.73;;;;;;;;;;5093430;28;20207;-69
2022/03/03 13:32:59;;;;;;;23.77;14.15;;;;;;;;;;5092856;28;20216;-68
2022/03/03 13:35:26;;;;;;;15.68;13.18;;;;;;;;;;5092887;28;20272;-68
2022/03/03 13:37:54;;;;;;;15.50;12.02;;;;;;;;;;5093302;28;20279;-68
2022/03/03 13:40:26;;;;;;;15.10;12.40;;;;;;;;;;5093200;28;20195;-67
2022/03/03 13:42:58;;;;;;;15.25;12.52;;;;;;;;;;5093356;28;20195;-67
2022/03/03 13:45:28;;;;;;;14.38;12.18;;;;;;;;;;5093653;28;20578;-68
2022/03/03 13:48:02;;;;;;;16.45;12.77;;;;;;;;;;5093849;28;20287;-68
2022/03/03 13:50:29;;;;;;;18.13;12.32;;;;;;;;;;5093585;28;20201;-68
2022/03/03 13:52:56;;;;;;;16.75;12.73;;;;;;;;;;5093064;28;20217;-69
2022/03/03 13:55:24;;;;;;;16.52;12.35;;;;;;;;;;5092864;28;20211;-68
2022/03/03 13:57:51;;;;;;;16.55;12.60;;;;;;;;;;5093608;28;20223;-68
2022/03/03 14:00:22;;;;;;;19.65;12.48;;;;;;;;;;5092977;28;20239;-68
2022/03/03 14:02:50;;;;;;;16.65;13.07;;;;;;;;;;5092653;28;20192;-68
2022/03/03 14:05:17;;;;;;;13.93;11.70;;;;;;;;;;5093166;28;20194;-69
2022/03/03 14:07:51;;;;;;;19.80;12.23;;;;;;;;;;5093318;28;20232;-68
2022/03/03 14:10:19;;;;;;;14.43;11.43;;;;;;;;;;5093180;28;20203;-69
2022/03/03 14:13:01;;;;;;;14.18;11.40;;;;;;;;;;5093351;28;20303;-68
2022/03/03 14:15:29;;;;;;;13.85;10.23;;;;;;;;;;5092529;28;20203;-68
2022/03/03 14:17:57;;;;;;;11.90;10.70;;;;;;;;;;5093350;28;20204;-69
2022/03/03 14:20:25;;;;;;;17.13;10.13;;;;;;;;;;5093120;28;20193;-69
2022/03/03 14:22:55;;;;;;;10.00;9.00;;;;;;;;;;5092473;28;20533;-69
2022/03/03 14:25:23;;;;;;;12.07;8.38;;;;;;;;;;5093109;28;20286;-67
2022/03/03 14:27:50;;;;;;;11.90;9.45;;;;;;;;;;5092997;28;20203;-67
2022/03/03 14:30:17;;;;;;;9.63;8.00;;;;;;;;;;5092288;28;20221;-67